sensor_id;sensor_type;location;lat;lon;timestamp;P1;durP1;ratioP1;P2;durP2;ratioP2
13185;SDS011;6658;53.080;7.428;2022-09-27T00:02:11;5.10;;;2.47;;
13185;SDS011;6658;53.080;7.428;2022-09-27T00:28:40;6.63;;;1.97;;
13185;SDS011;6658;53.080;7.428;2022-09-27T00:31:40;7.80;;;3.70;;
13185;SDS011;6658;53.080;7.428;2022-09-27T00:52:38;6.30;;;1.70;;
13185;SDS011;6658;53.080;7.428;2022-09-27T01:02:30;4.73;;;1.50;;
13185;SDS011;6658;53.080;7.428;2022-09-27T01:08:33;4.53;;;1.83;;
13185;SDS011;6658;53.080;7.428;2022-09-27T01:31:33;2.13;;;0.90;;
13185;SDS011;6658;53.080;7.428;2022-09-27T01:37:52;2.57;;;0.70;;
13185;SDS011;6658;53.080;7.428;2022-09-27T01:40:41;1.87;;;0.97;;
13185;SDS011;6658;53.080;7.428;2022-09-27T01:48:55;1.97;;;0.60;;
13185;SDS011;6658;53.080;7.428;2022-09-27T01:51:29;3.20;;;0.50;;
13185;SDS011;6658;53.080;7.428;2022-09-27T01:54:09;2.63;;;0.50;;
13185;SDS011;6658;53.080;7.428;2022-09-27T01:56:58;3.47;;;0.60;;
13185;SDS011;6658;53.080;7.428;2022-09-27T01:59:45;1.30;;;0.53;;
13185;SDS011;6658;53.080;7.428;2022-09-27T02:02:32;1.27;;;0.70;;
13185;SDS011;6658;53.080;7.428;2022-09-27T02:08:59;1.87;;;0.90;;
13185;SDS011;6658;53.080;7.428;2022-09-27T02:18:50;2.43;;;0.80;;
13185;SDS011;6658;53.080;7.428;2022-09-27T02:21:40;4.07;;;1.37;;
13185;SDS011;6658;53.080;7.428;2022-09-27T02:24:24;3.07;;;1.20;;
13185;SDS011;6658;53.080;7.428;2022-09-27T02:27:07;2.93;;;0.97;;
13185;SDS011;6658;53.080;7.428;2022-09-27T02:29:46;4.53;;;1.07;;
13185;SDS011;6658;53.080;7.428;2022-09-27T02:32:35;2.10;;;1.33;;
13185;SDS011;6658;53.080;7.428;2022-09-27T02:35:35;3.43;;;1.10;;
13185;SDS011;6658;53.080;7.428;2022-09-27T02:38:01;5.43;;;1.30;;
13185;SDS011;6658;53.080;7.428;2022-09-27T02:40:50;2.47;;;1.13;;
13185;SDS011;6658;53.080;7.428;2022-09-27T02:43:26;1.93;;;1.30;;
13185;SDS011;6658;53.080;7.428;2022-09-27T03:06:19;4.13;;;1.53;;
13185;SDS011;6658;53.080;7.428;2022-09-27T03:08:47;4.40;;;1.10;;
13185;SDS011;6658;53.080;7.428;2022-09-27T03:11:13;2.17;;;0.80;;
13185;SDS011;6658;53.080;7.428;2022-09-27T03:13:38;4.30;;;1.20;;
13185;SDS011;6658;53.080;7.428;2022-09-27T03:16:07;3.80;;;0.97;;
13185;SDS011;6658;53.080;7.428;2022-09-27T03:18:49;5.57;;;1.37;;
13185;SDS011;6658;53.080;7.428;2022-09-27T03:21:17;4.37;;;1.07;;
13185;SDS011;6658;53.080;7.428;2022-09-27T03:23:46;5.03;;;1.07;;
13185;SDS011;6658;53.080;7.428;2022-09-27T03:26:11;1.27;;;0.63;;
13185;SDS011;6658;53.080;7.428;2022-09-27T03:28:37;1.63;;;0.60;;
13185;SDS011;6658;53.080;7.428;2022-09-27T03:31:08;2.27;;;0.97;;
13185;SDS011;6658;53.080;7.428;2022-09-27T03:39:53;3.53;;;1.63;;
13185;SDS011;6658;53.080;7.428;2022-09-27T03:42:22;3.17;;;0.70;;
13185;SDS011;6658;53.080;7.428;2022-09-27T03:44:47;2.50;;;0.80;;
13185;SDS011;6658;53.080;7.428;2022-09-27T03:47:15;3.80;;;0.80;;
13185;SDS011;6658;53.080;7.428;2022-09-27T03:49:41;1.50;;;0.97;;
13185;SDS011;6658;53.080;7.428;2022-09-27T03:52:07;2.40;;;0.77;;
13185;SDS011;6658;53.080;7.428;2022-09-27T03:54:32;2.67;;;0.53;;
13185;SDS011;6658;53.080;7.428;2022-09-27T03:56:58;5.17;;;1.03;;
13185;SDS011;6658;53.080;7.428;2022-09-27T03:59:28;5.33;;;1.10;;
13185;SDS011;6658;53.080;7.428;2022-09-27T04:01:54;1.70;;;0.80;;
13185;SDS011;6658;53.080;7.428;2022-09-27T04:04:20;4.30;;;1.30;;
13185;SDS011;6658;53.080;7.428;2022-09-27T04:06:46;1.30;;;1.00;;
13185;SDS011;6658;53.080;7.428;2022-09-27T04:09:14;2.50;;;0.70;;
13185;SDS011;6658;53.080;7.428;2022-09-27T04:11:40;4.20;;;0.90;;
13185;SDS011;6658;53.080;7.428;2022-09-27T04:14:06;2.93;;;0.80;;
13185;SDS011;6658;53.080;7.428;2022-09-27T04:16:33;2.77;;;0.83;;
13185;SDS011;6658;53.080;7.428;2022-09-27T04:19:02;2.03;;;0.97;;
13185;SDS011;6658;53.080;7.428;2022-09-27T04:21:30;2.27;;;0.80;;
13185;SDS011;6658;53.080;7.428;2022-09-27T04:23:56;3.23;;;0.90;;
13185;SDS011;6658;53.080;7.428;2022-09-27T04:26:24;3.33;;;1.00;;
13185;SDS011;6658;53.080;7.428;2022-09-27T04:28:53;3.10;;;1.10;;
13185;SDS011;6658;53.080;7.428;2022-09-27T04:31:22;3.60;;;1.40;;
13185;SDS011;6658;53.080;7.428;2022-09-27T04:33:47;4.07;;;1.30;;
13185;SDS011;6658;53.080;7.428;2022-09-27T04:36:14;4.33;;;1.33;;
13185;SDS011;6658;53.080;7.428;2022-09-27T04:38:59;3.47;;;1.70;;
13185;SDS011;6658;53.080;7.428;2022-09-27T04:41:29;3.67;;;1.90;;
13185;SDS011;6658;53.080;7.428;2022-09-27T04:43:55;2.90;;;1.87;;
13185;SDS011;6658;53.080;7.428;2022-09-27T04:46:24;2.10;;;1.43;;
13185;SDS011;6658;53.080;7.428;2022-09-27T04:48:51;6.03;;;2.30;;
13185;SDS011;6658;53.080;7.428;2022-09-27T04:51:22;4.43;;;2.40;;
13185;SDS011;6658;53.080;7.428;2022-09-27T04:53:50;3.43;;;2.10;;
13185;SDS011;6658;53.080;7.428;2022-09-27T04:56:16;5.70;;;2.23;;
13185;SDS011;6658;53.080;7.428;2022-09-27T04:58:44;3.50;;;2.10;;
13185;SDS011;6658;53.080;7.428;2022-09-27T05:01:10;3.33;;;2.10;;
13185;SDS011;6658;53.080;7.428;2022-09-27T05:03:36;3.83;;;2.20;;
13185;SDS011;6658;53.080;7.428;2022-09-27T05:06:02;4.97;;;1.90;;
13185;SDS011;6658;53.080;7.428;2022-09-27T05:08:30;2.80;;;1.30;;
13185;SDS011;6658;53.080;7.428;2022-09-27T05:10:58;6.80;;;1.70;;
13185;SDS011;6658;53.080;7.428;2022-09-27T05:14:15;5.50;;;2.00;;
13185;SDS011;6658;53.080;7.428;2022-09-27T05:16:27;3.50;;;1.20;;
13185;SDS011;6658;53.080;7.428;2022-09-27T05:18:56;3.37;;;1.20;;
13185;SDS011;6658;53.080;7.428;2022-09-27T05:21:31;3.23;;;1.00;;
13185;SDS011;6658;53.080;7.428;2022-09-27T05:23:57;2.90;;;0.90;;
13185;SDS011;6658;53.080;7.428;2022-09-27T05:26:41;2.70;;;0.70;;
13185;SDS011;6658;53.080;7.428;2022-09-27T05:29:10;3.00;;;0.80;;
13185;SDS011;6658;53.080;7.428;2022-09-27T05:31:36;1.70;;;0.77;;
13185;SDS011;6658;53.080;7.428;2022-09-27T05:34:02;1.80;;;0.50;;
13185;SDS011;6658;53.080;7.428;2022-09-27T05:36:28;2.53;;;0.73;;
13185;SDS011;6658;53.080;7.428;2022-09-27T05:38:54;1.33;;;0.70;;
13185;SDS011;6658;53.080;7.428;2022-09-27T05:41:20;1.83;;;0.60;;
13185;SDS011;6658;53.080;7.428;2022-09-27T05:43:46;4.53;;;0.70;;
13185;SDS011;6658;53.080;7.428;2022-09-27T05:46:12;1.13;;;0.60;;
13185;SDS011;6658;53.080;7.428;2022-09-27T05:48:43;1.73;;;1.10;;
13185;SDS011;6658;53.080;7.428;2022-09-27T05:51:11;1.93;;;0.60;;
13185;SDS011;6658;53.080;7.428;2022-09-27T05:54:15;1.93;;;0.53;;
13185;SDS011;6658;53.080;7.428;2022-09-27T05:56:40;1.83;;;0.70;;
13185;SDS011;6658;53.080;7.428;2022-09-27T05:59:06;2.53;;;0.80;;
13185;SDS011;6658;53.080;7.428;2022-09-27T06:01:32;1.17;;;0.50;;
13185;SDS011;6658;53.080;7.428;2022-09-27T06:04:02;1.73;;;0.70;;
13185;SDS011;6658;53.080;7.428;2022-09-27T06:06:31;1.83;;;0.60;;
13185;SDS011;6658;53.080;7.428;2022-09-27T06:09:00;1.63;;;0.73;;
13185;SDS011;6658;53.080;7.428;2022-09-27T06:11:26;2.17;;;0.80;;
13185;SDS011;6658;53.080;7.428;2022-09-27T06:14:01;1.33;;;0.90;;
13185;SDS011;6658;53.080;7.428;2022-09-27T06:16:32;1.83;;;0.97;;
13185;SDS011;6658;53.080;7.428;2022-09-27T06:19:30;4.77;;;1.23;;
13185;SDS011;6658;53.080;7.428;2022-09-27T06:21:56;4.77;;;1.93;;
13185;SDS011;6658;53.080;7.428;2022-09-27T06:24:21;2.63;;;1.60;;
13185;SDS011;6658;53.080;7.428;2022-09-27T06:26:47;3.50;;;1.70;;
13185;SDS011;6658;53.080;7.428;2022-09-27T06:29:13;2.60;;;2.00;;
13185;SDS011;6658;53.080;7.428;2022-09-27T06:31:39;4.10;;;1.90;;
13185;SDS011;6658;53.080;7.428;2022-09-27T06:34:04;3.43;;;1.87;;
13185;SDS011;6658;53.080;7.428;2022-09-27T06:36:33;3.27;;;1.87;;
13185;SDS011;6658;53.080;7.428;2022-09-27T06:38:59;4.53;;;1.70;;
13185;SDS011;6658;53.080;7.428;2022-09-27T06:41:25;2.50;;;1.40;;
13185;SDS011;6658;53.080;7.428;2022-09-27T06:44:05;2.57;;;1.37;;
13185;SDS011;6658;53.080;7.428;2022-09-27T06:46:31;4.83;;;1.60;;
13185;SDS011;6658;53.080;7.428;2022-09-27T06:48:57;4.50;;;1.40;;
13185;SDS011;6658;53.080;7.428;2022-09-27T06:51:22;2.10;;;1.30;;
13185;SDS011;6658;53.080;7.428;2022-09-27T06:53:51;2.90;;;1.50;;
13185;SDS011;6658;53.080;7.428;2022-09-27T06:56:19;3.70;;;1.47;;
13185;SDS011;6658;53.080;7.428;2022-09-27T06:59:07;2.60;;;1.37;;
13185;SDS011;6658;53.080;7.428;2022-09-27T07:01:53;3.77;;;2.03;;
13185;SDS011;6658;53.080;7.428;2022-09-27T07:04:24;4.10;;;2.20;;
13185;SDS011;6658;53.080;7.428;2022-09-27T07:07:03;3.87;;;1.60;;
13185;SDS011;6658;53.080;7.428;2022-09-27T07:09:32;4.23;;;1.50;;
13185;SDS011;6658;53.080;7.428;2022-09-27T07:11:58;3.00;;;1.47;;
13185;SDS011;6658;53.080;7.428;2022-09-27T07:14:41;4.60;;;1.70;;
13185;SDS011;6658;53.080;7.428;2022-09-27T07:17:44;1.63;;;1.10;;
13185;SDS011;6658;53.080;7.428;2022-09-27T07:20:47;5.13;;;1.63;;
13185;SDS011;6658;53.080;7.428;2022-09-27T07:23:51;3.50;;;1.43;;
13185;SDS011;6658;53.080;7.428;2022-09-27T07:26:33;2.87;;;1.73;;
13185;SDS011;6658;53.080;7.428;2022-09-27T07:29:45;1.67;;;1.23;;
13185;SDS011;6658;53.080;7.428;2022-09-27T07:32:11;2.40;;;1.30;;
13185;SDS011;6658;53.080;7.428;2022-09-27T07:34:42;3.50;;;0.97;;
13185;SDS011;6658;53.080;7.428;2022-09-27T07:37:31;2.33;;;1.03;;
13185;SDS011;6658;53.080;7.428;2022-09-27T07:40:01;2.83;;;0.90;;
13185;SDS011;6658;53.080;7.428;2022-09-27T07:42:34;1.50;;;0.97;;
13185;SDS011;6658;53.080;7.428;2022-09-27T07:45:03;2.20;;;1.13;;
13185;SDS011;6658;53.080;7.428;2022-09-27T07:47:39;1.60;;;0.63;;
13185;SDS011;6658;53.080;7.428;2022-09-27T07:50:06;1.40;;;0.53;;
13185;SDS011;6658;53.080;7.428;2022-09-27T07:52:42;1.63;;;0.30;;
13185;SDS011;6658;53.080;7.428;2022-09-27T07:55:19;1.73;;;0.57;;
13185;SDS011;6658;53.080;7.428;2022-09-27T07:57:48;0.40;;;0.33;;
13185;SDS011;6658;53.080;7.428;2022-09-27T08:00:15;1.00;;;0.30;;
13185;SDS011;6658;53.080;7.428;2022-09-27T08:02:45;1.10;;;0.33;;
13185;SDS011;6658;53.080;7.428;2022-09-27T08:05:12;1.93;;;0.43;;
13185;SDS011;6658;53.080;7.428;2022-09-27T08:07:47;3.13;;;0.37;;
13185;SDS011;6658;53.080;7.428;2022-09-27T08:10:17;1.40;;;0.70;;
13185;SDS011;6658;53.080;7.428;2022-09-27T08:12:43;3.10;;;0.50;;
13185;SDS011;6658;53.080;7.428;2022-09-27T08:15:09;1.80;;;0.73;;
13185;SDS011;6658;53.080;7.428;2022-09-27T08:17:38;0.97;;;0.53;;
13185;SDS011;6658;53.080;7.428;2022-09-27T08:20:04;2.03;;;0.73;;
13185;SDS011;6658;53.080;7.428;2022-09-27T08:22:30;1.27;;;0.73;;
13185;SDS011;6658;53.080;7.428;2022-09-27T08:25:05;2.20;;;0.50;;
13185;SDS011;6658;53.080;7.428;2022-09-27T08:27:31;1.70;;;0.60;;
13185;SDS011;6658;53.080;7.428;2022-09-27T08:29:57;2.23;;;0.60;;
13185;SDS011;6658;53.080;7.428;2022-09-27T08:32:23;1.17;;;0.60;;
13185;SDS011;6658;53.080;7.428;2022-09-27T08:34:48;2.60;;;0.57;;
13185;SDS011;6658;53.080;7.428;2022-09-27T08:37:14;1.70;;;0.70;;
13185;SDS011;6658;53.080;7.428;2022-09-27T08:39:43;1.93;;;0.50;;
13185;SDS011;6658;53.080;7.428;2022-09-27T08:42:30;0.60;;;0.37;;
13185;SDS011;6658;53.080;7.428;2022-09-27T08:47:42;0.80;;;0.50;;
13185;SDS011;6658;53.080;7.428;2022-09-27T08:53:00;1.43;;;0.50;;
13185;SDS011;6658;53.080;7.428;2022-09-27T08:55:34;1.60;;;0.70;;
13185;SDS011;6658;53.080;7.428;2022-09-27T09:01:00;2.67;;;0.33;;
13185;SDS011;6658;53.080;7.428;2022-09-27T09:03:34;2.10;;;0.50;;
13185;SDS011;6658;53.080;7.428;2022-09-27T09:08:51;2.83;;;0.50;;
13185;SDS011;6658;53.080;7.428;2022-09-27T09:27:28;1.13;;;0.40;;
13185;SDS011;6658;53.080;7.428;2022-09-27T09:30:13;1.57;;;0.30;;
13185;SDS011;6658;53.080;7.428;2022-09-27T09:36:08;1.67;;;0.60;;
13185;SDS011;6658;53.080;7.428;2022-09-27T09:41:09;1.33;;;0.53;;
13185;SDS011;6658;53.080;7.428;2022-09-27T09:52:15;0.33;;;0.33;;
13185;SDS011;6658;53.080;7.428;2022-09-27T09:54:45;1.30;;;0.30;;
13185;SDS011;6658;53.080;7.428;2022-09-27T09:57:19;1.10;;;0.47;;
13185;SDS011;6658;53.080;7.428;2022-09-27T09:59:58;1.50;;;0.40;;
13185;SDS011;6658;53.080;7.428;2022-09-27T10:02:36;0.60;;;0.30;;
13185;SDS011;6658;53.080;7.428;2022-09-27T10:05:04;1.63;;;0.50;;
13185;SDS011;6658;53.080;7.428;2022-09-27T10:07:34;1.07;;;0.40;;
13185;SDS011;6658;53.080;7.428;2022-09-27T10:10:03;1.10;;;0.30;;
13185;SDS011;6658;53.080;7.428;2022-09-27T10:12:33;0.30;;;0.23;;
13185;SDS011;6658;53.080;7.428;2022-09-27T10:15:01;1.03;;;0.30;;
13185;SDS011;6658;53.080;7.428;2022-09-27T10:17:36;1.23;;;0.37;;
13185;SDS011;6658;53.080;7.428;2022-09-27T10:20:04;1.63;;;0.50;;
13185;SDS011;6658;53.080;7.428;2022-09-27T10:25:05;0.87;;;0.40;;
13185;SDS011;6658;53.080;7.428;2022-09-27T10:32:59;1.10;;;0.40;;
13185;SDS011;6658;53.080;7.428;2022-09-27T10:35:45;0.20;;;0.20;;
13185;SDS011;6658;53.080;7.428;2022-09-27T10:40:44;1.17;;;0.60;;
13185;SDS011;6658;53.080;7.428;2022-09-27T10:43:27;0.90;;;0.33;;
13185;SDS011;6658;53.080;7.428;2022-09-27T10:46:05;0.33;;;0.20;;
13185;SDS011;6658;53.080;7.428;2022-09-27T10:48:34;1.33;;;0.23;;
13185;SDS011;6658;53.080;7.428;2022-09-27T10:51:03;1.97;;;0.33;;
13185;SDS011;6658;53.080;7.428;2022-09-27T10:53:31;1.37;;;0.20;;
13185;SDS011;6658;53.080;7.428;2022-09-27T10:55:59;0.40;;;0.40;;
13185;SDS011;6658;53.080;7.428;2022-09-27T11:00:59;0.93;;;0.20;;
13185;SDS011;6658;53.080;7.428;2022-09-27T11:03:30;0.53;;;0.27;;
13185;SDS011;6658;53.080;7.428;2022-09-27T11:06:08;1.67;;;0.30;;
13185;SDS011;6658;53.080;7.428;2022-09-27T11:09:23;0.50;;;0.23;;
13185;SDS011;6658;53.080;7.428;2022-09-27T11:14:37;0.53;;;0.40;;
13185;SDS011;6658;53.080;7.428;2022-09-27T11:17:17;0.70;;;0.47;;
13185;SDS011;6658;53.080;7.428;2022-09-27T11:19:56;1.33;;;0.40;;
13185;SDS011;6658;53.080;7.428;2022-09-27T11:25:33;1.23;;;0.40;;
13185;SDS011;6658;53.080;7.428;2022-09-27T11:28:22;0.53;;;0.30;;
13185;SDS011;6658;53.080;7.428;2022-09-27T11:39:11;0.93;;;0.60;;
13185;SDS011;6658;53.080;7.428;2022-09-27T11:55:44;0.70;;;0.50;;
13185;SDS011;6658;53.080;7.428;2022-09-27T11:58:30;0.87;;;0.80;;
13185;SDS011;6658;53.080;7.428;2022-09-27T12:09:27;1.63;;;0.37;;
13185;SDS011;6658;53.080;7.428;2022-09-27T12:12:14;0.80;;;0.30;;
13185;SDS011;6658;53.080;7.428;2022-09-27T12:14:55;0.80;;;0.30;;
13185;SDS011;6658;53.080;7.428;2022-09-27T12:17:32;0.60;;;0.50;;
13185;SDS011;6658;53.080;7.428;2022-09-27T12:20:02;1.60;;;0.50;;
13185;SDS011;6658;53.080;7.428;2022-09-27T12:22:36;2.23;;;1.10;;
13185;SDS011;6658;53.080;7.428;2022-09-27T12:25:11;0.70;;;0.70;;
13185;SDS011;6658;53.080;7.428;2022-09-27T12:27:51;2.10;;;1.13;;
13185;SDS011;6658;53.080;7.428;2022-09-27T12:30:25;0.83;;;0.60;;
13185;SDS011;6658;53.080;7.428;2022-09-27T12:35:27;1.77;;;0.60;;
13185;SDS011;6658;53.080;7.428;2022-09-27T12:38:11;0.40;;;0.40;;
13185;SDS011;6658;53.080;7.428;2022-09-27T12:40:57;0.40;;;0.20;;
13185;SDS011;6658;53.080;7.428;2022-09-27T12:43:26;4.13;;;3.50;;
13185;SDS011;6658;53.080;7.428;2022-09-27T12:52:00;0.20;;;0.20;;
13185;SDS011;6658;53.080;7.428;2022-09-27T12:54:45;0.53;;;0.20;;
13185;SDS011;6658;53.080;7.428;2022-09-27T13:00:11;0.20;;;0.20;;
13185;SDS011;6658;53.080;7.428;2022-09-27T13:13:57;0.47;;;0.20;;
13185;SDS011;6658;53.080;7.428;2022-09-27T13:16:49;0.53;;;0.20;;
13185;SDS011;6658;53.080;7.428;2022-09-27T13:19:36;0.10;;;0.10;;
13185;SDS011;6658;53.080;7.428;2022-09-27T13:22:34;2.10;;;0.33;;
13185;SDS011;6658;53.080;7.428;2022-09-27T13:25:43;0.20;;;0.10;;
13185;SDS011;6658;53.080;7.428;2022-09-27T13:41:41;0.20;;;0.20;;
13185;SDS011;6658;53.080;7.428;2022-09-27T13:44:38;1.07;;;0.40;;
13185;SDS011;6658;53.080;7.428;2022-09-27T13:50:00;1.30;;;0.50;;
13185;SDS011;6658;53.080;7.428;2022-09-27T13:52:41;0.97;;;0.37;;
13185;SDS011;6658;53.080;7.428;2022-09-27T13:58:14;1.70;;;0.30;;
13185;SDS011;6658;53.080;7.428;2022-09-27T14:00:53;0.37;;;0.20;;
13185;SDS011;6658;53.080;7.428;2022-09-27T14:06:13;0.50;;;0.30;;
13185;SDS011;6658;53.080;7.428;2022-09-27T14:08:44;2.20;;;0.30;;
13185;SDS011;6658;53.080;7.428;2022-09-27T14:11:20;1.37;;;0.30;;
13185;SDS011;6658;53.080;7.428;2022-09-27T14:13:58;0.53;;;0.33;;
13185;SDS011;6658;53.080;7.428;2022-09-27T14:16:28;0.20;;;0.20;;
13185;SDS011;6658;53.080;7.428;2022-09-27T14:18:57;1.30;;;0.20;;
13185;SDS011;6658;53.080;7.428;2022-09-27T14:21:26;0.50;;;0.27;;
13185;SDS011;6658;53.080;7.428;2022-09-27T14:32:44;0.20;;;0.10;;
13185;SDS011;6658;53.080;7.428;2022-09-27T14:35:19;0.40;;;0.20;;
13185;SDS011;6658;53.080;7.428;2022-09-27T14:38:06;0.63;;;0.20;;
13185;SDS011;6658;53.080;7.428;2022-09-27T14:43:19;1.30;;;0.13;;
13185;SDS011;6658;53.080;7.428;2022-09-27T14:45:47;2.10;;;0.10;;
13185;SDS011;6658;53.080;7.428;2022-09-27T14:48:25;0.13;;;0.13;;
13185;SDS011;6658;53.080;7.428;2022-09-27T14:51:01;0.30;;;0.10;;
13185;SDS011;6658;53.080;7.428;2022-09-27T14:53:34;0.43;;;0.10;;
13185;SDS011;6658;53.080;7.428;2022-09-27T14:56:06;0.97;;;0.20;;
13185;SDS011;6658;53.080;7.428;2022-09-27T14:58:36;0.37;;;0.23;;
13185;SDS011;6658;53.080;7.428;2022-09-27T15:01:02;0.50;;;0.40;;
13185;SDS011;6658;53.080;7.428;2022-09-27T15:03:29;0.20;;;0.20;;
13185;SDS011;6658;53.080;7.428;2022-09-27T15:05:57;0.20;;;0.20;;
13185;SDS011;6658;53.080;7.428;2022-09-27T15:08:24;0.20;;;0.20;;
13185;SDS011;6658;53.080;7.428;2022-09-27T15:10:57;0.10;;;0.10;;
13185;SDS011;6658;53.080;7.428;2022-09-27T15:13:23;0.37;;;0.20;;
13185;SDS011;6658;53.080;7.428;2022-09-27T15:15:51;0.20;;;0.20;;
13185;SDS011;6658;53.080;7.428;2022-09-27T15:18:31;0.83;;;0.30;;
13185;SDS011;6658;53.080;7.428;2022-09-27T15:20:57;0.97;;;0.33;;
13185;SDS011;6658;53.080;7.428;2022-09-27T15:23:27;11.87;;;6.70;;
13185;SDS011;6658;53.080;7.428;2022-09-27T15:26:01;9.30;;;5.90;;
13185;SDS011;6658;53.080;7.428;2022-09-27T15:28:31;5.73;;;3.00;;
13185;SDS011;6658;53.080;7.428;2022-09-27T15:30:58;4.47;;;3.13;;
13185;SDS011;6658;53.080;7.428;2022-09-27T15:33:25;0.80;;;0.50;;
13185;SDS011;6658;53.080;7.428;2022-09-27T15:35:56;0.43;;;0.10;;
13185;SDS011;6658;53.080;7.428;2022-09-27T15:41:05;0.20;;;0.20;;
13185;SDS011;6658;53.080;7.428;2022-09-27T15:43:39;2.80;;;1.60;;
13185;SDS011;6658;53.080;7.428;2022-09-27T15:46:32;0.60;;;0.60;;
13185;SDS011;6658;53.080;7.428;2022-09-27T15:51:43;3.13;;;2.20;;
13185;SDS011;6658;53.080;7.428;2022-09-27T15:54:13;1.40;;;1.30;;
13185;SDS011;6658;53.080;7.428;2022-09-27T15:56:42;2.63;;;2.07;;
13185;SDS011;6658;53.080;7.428;2022-09-27T15:59:11;1.03;;;0.73;;
13185;SDS011;6658;53.080;7.428;2022-09-27T16:01:44;1.50;;;0.50;;
13185;SDS011;6658;53.080;7.428;2022-09-27T16:04:11;0.20;;;0.20;;
13185;SDS011;6658;53.080;7.428;2022-09-27T16:06:36;3.00;;;0.50;;
13185;SDS011;6658;53.080;7.428;2022-09-27T16:09:08;0.50;;;0.37;;
13185;SDS011;6658;53.080;7.428;2022-09-27T16:28:03;0.30;;;0.30;;
13185;SDS011;6658;53.080;7.428;2022-09-27T16:30:32;0.30;;;0.30;;
13185;SDS011;6658;53.080;7.428;2022-09-27T16:33:01;1.70;;;0.50;;
13185;SDS011;6658;53.080;7.428;2022-09-27T16:35:27;0.63;;;0.63;;
13185;SDS011;6658;53.080;7.428;2022-09-27T16:37:53;2.50;;;0.67;;
13185;SDS011;6658;53.080;7.428;2022-09-27T16:40:18;1.33;;;0.50;;
13185;SDS011;6658;53.080;7.428;2022-09-27T16:42:46;0.30;;;0.30;;
13185;SDS011;6658;53.080;7.428;2022-09-27T16:45:13;0.80;;;0.60;;
13185;SDS011;6658;53.080;7.428;2022-09-27T16:47:41;2.07;;;1.03;;
13185;SDS011;6658;53.080;7.428;2022-09-27T16:50:11;0.93;;;0.40;;
13185;SDS011;6658;53.080;7.428;2022-09-27T16:52:56;0.53;;;0.40;;
13185;SDS011;6658;53.080;7.428;2022-09-27T16:55:25;0.40;;;0.40;;
13185;SDS011;6658;53.080;7.428;2022-09-27T16:57:52;0.73;;;0.57;;
13185;SDS011;6658;53.080;7.428;2022-09-27T17:00:24;1.10;;;0.30;;
13185;SDS011;6658;53.080;7.428;2022-09-27T17:02:50;0.53;;;0.43;;
13185;SDS011;6658;53.080;7.428;2022-09-27T17:05:23;1.07;;;0.50;;
13185;SDS011;6658;53.080;7.428;2022-09-27T17:07:50;1.37;;;0.67;;
13185;SDS011;6658;53.080;7.428;2022-09-27T17:10:18;1.93;;;0.70;;
13185;SDS011;6658;53.080;7.428;2022-09-27T17:13:11;2.13;;;0.87;;
13185;SDS011;6658;53.080;7.428;2022-09-27T17:15:42;0.67;;;0.50;;
13185;SDS011;6658;53.080;7.428;2022-09-27T17:18:28;2.10;;;0.70;;
13185;SDS011;6658;53.080;7.428;2022-09-27T17:21:04;3.10;;;0.77;;
13185;SDS011;6658;53.080;7.428;2022-09-27T17:23:36;0.87;;;0.50;;
13185;SDS011;6658;53.080;7.428;2022-09-27T17:26:05;0.60;;;0.50;;
13185;SDS011;6658;53.080;7.428;2022-09-27T17:28:38;1.77;;;0.63;;
13185;SDS011;6658;53.080;7.428;2022-09-27T17:31:14;1.27;;;0.50;;
13185;SDS011;6658;53.080;7.428;2022-09-27T17:33:47;1.37;;;0.80;;
13185;SDS011;6658;53.080;7.428;2022-09-27T17:36:25;2.03;;;0.80;;
13185;SDS011;6658;53.080;7.428;2022-09-27T17:38:59;1.40;;;0.83;;
13185;SDS011;6658;53.080;7.428;2022-09-27T17:41:31;1.87;;;1.00;;
13185;SDS011;6658;53.080;7.428;2022-09-27T17:44:05;1.80;;;0.93;;
13185;SDS011;6658;53.080;7.428;2022-09-27T17:46:35;1.43;;;1.00;;
13185;SDS011;6658;53.080;7.428;2022-09-27T17:49:02;2.20;;;1.07;;
13185;SDS011;6658;53.080;7.428;2022-09-27T17:51:51;1.40;;;1.00;;
13185;SDS011;6658;53.080;7.428;2022-09-27T17:54:18;2.23;;;1.00;;
13185;SDS011;6658;53.080;7.428;2022-09-27T17:56:52;2.90;;;1.10;;
13185;SDS011;6658;53.080;7.428;2022-09-27T17:59:21;1.87;;;1.13;;
13185;SDS011;6658;53.080;7.428;2022-09-27T18:02:54;3.37;;;3.07;;
13185;SDS011;6658;53.080;7.428;2022-09-27T18:05:08;2.20;;;1.40;;
13185;SDS011;6658;53.080;7.428;2022-09-27T18:08:04;2.30;;;1.30;;
13185;SDS011;6658;53.080;7.428;2022-09-27T18:10:44;1.60;;;1.50;;
13185;SDS011;6658;53.080;7.428;2022-09-27T18:13:37;2.27;;;2.07;;
13185;SDS011;6658;53.080;7.428;2022-09-27T18:16:10;3.00;;;2.00;;
13185;SDS011;6658;53.080;7.428;2022-09-27T18:18:50;4.60;;;2.90;;
13185;SDS011;6658;53.080;7.428;2022-09-27T18:21:18;4.27;;;2.87;;
13185;SDS011;6658;53.080;7.428;2022-09-27T18:23:50;4.43;;;3.13;;
13185;SDS011;6658;53.080;7.428;2022-09-27T18:26:23;2.67;;;2.17;;
13185;SDS011;6658;53.080;7.428;2022-09-27T18:29:03;2.80;;;1.73;;
13185;SDS011;6658;53.080;7.428;2022-09-27T18:31:39;2.70;;;1.60;;
13185;SDS011;6658;53.080;7.428;2022-09-27T18:34:11;17.23;;;15.43;;
13185;SDS011;6658;53.080;7.428;2022-09-27T18:36:43;5.17;;;4.60;;
13185;SDS011;6658;53.080;7.428;2022-09-27T18:39:10;2.83;;;2.43;;
13185;SDS011;6658;53.080;7.428;2022-09-27T18:41:46;3.87;;;3.10;;
13185;SDS011;6658;53.080;7.428;2022-09-27T18:44:17;3.40;;;2.57;;
13185;SDS011;6658;53.080;7.428;2022-09-27T18:46:51;3.17;;;2.80;;
13185;SDS011;6658;53.080;7.428;2022-09-27T18:49:27;5.30;;;2.50;;
13185;SDS011;6658;53.080;7.428;2022-09-27T18:52:04;4.77;;;2.70;;
13185;SDS011;6658;53.080;7.428;2022-09-27T18:54:35;2.93;;;2.63;;
13185;SDS011;6658;53.080;7.428;2022-09-27T18:57:04;3.97;;;3.50;;
13185;SDS011;6658;53.080;7.428;2022-09-27T19:02:38;6.93;;;6.33;;
13185;SDS011;6658;53.080;7.428;2022-09-27T19:05:16;6.33;;;5.37;;
13185;SDS011;6658;53.080;7.428;2022-09-27T19:07:48;7.87;;;6.20;;
13185;SDS011;6658;53.080;7.428;2022-09-27T19:10:19;3.90;;;3.60;;
13185;SDS011;6658;53.080;7.428;2022-09-27T19:12:49;5.47;;;5.00;;
13185;SDS011;6658;53.080;7.428;2022-09-27T19:15:18;3.10;;;2.80;;
13185;SDS011;6658;53.080;7.428;2022-09-27T19:17:43;4.13;;;3.03;;
13185;SDS011;6658;53.080;7.428;2022-09-27T19:20:31;2.90;;;2.67;;
13185;SDS011;6658;53.080;7.428;2022-09-27T19:26:06;2.67;;;2.33;;
13185;SDS011;6658;53.080;7.428;2022-09-27T19:28:36;3.40;;;2.47;;
13185;SDS011;6658;53.080;7.428;2022-09-27T19:31:07;4.63;;;2.40;;
13185;SDS011;6658;53.080;7.428;2022-09-27T19:33:45;3.80;;;2.70;;
13185;SDS011;6658;53.080;7.428;2022-09-27T19:36:31;3.87;;;2.80;;
13185;SDS011;6658;53.080;7.428;2022-09-27T19:39:12;3.80;;;2.37;;
13185;SDS011;6658;53.080;7.428;2022-09-27T19:41:41;2.33;;;2.13;;
13185;SDS011;6658;53.080;7.428;2022-09-27T19:44:18;2.70;;;2.30;;
13185;SDS011;6658;53.080;7.428;2022-09-27T19:46:44;2.97;;;2.03;;
13185;SDS011;6658;53.080;7.428;2022-09-27T19:49:29;3.23;;;2.80;;
13185;SDS011;6658;53.080;7.428;2022-09-27T19:52:47;4.30;;;3.80;;
13185;SDS011;6658;53.080;7.428;2022-09-27T20:13:09;3.33;;;3.07;;
13185;SDS011;6658;53.080;7.428;2022-09-27T20:16:14;2.63;;;2.43;;
13185;SDS011;6658;53.080;7.428;2022-09-27T21:04:31;5.47;;;2.97;;
13185;SDS011;6658;53.080;7.428;2022-09-27T21:11:33;2.80;;;2.60;;
13185;SDS011;6658;53.080;7.428;2022-09-27T21:21:30;4.83;;;3.90;;
13185;SDS011;6658;53.080;7.428;2022-09-27T21:27:08;6.67;;;5.30;;
13185;SDS011;6658;53.080;7.428;2022-09-27T21:29:39;6.87;;;4.73;;
13185;SDS011;6658;53.080;7.428;2022-09-27T21:32:36;5.77;;;5.27;;
13185;SDS011;6658;53.080;7.428;2022-09-27T21:35:51;5.33;;;4.77;;
13185;SDS011;6658;53.080;7.428;2022-09-27T21:48:40;3.43;;;3.13;;
13185;SDS011;6658;53.080;7.428;2022-09-27T21:54:50;3.03;;;2.80;;
13185;SDS011;6658;53.080;7.428;2022-09-27T22:01:22;2.87;;;2.57;;
13185;SDS011;6658;53.080;7.428;2022-09-27T22:11:03;2.40;;;2.20;;
13185;SDS011;6658;53.080;7.428;2022-09-27T22:17:33;3.90;;;2.97;;
13185;SDS011;6658;53.080;7.428;2022-09-27T22:20:34;3.50;;;2.37;;
13185;SDS011;6658;53.080;7.428;2022-09-27T22:23:26;3.90;;;2.93;;
13185;SDS011;6658;53.080;7.428;2022-09-27T22:26:35;4.10;;;3.57;;